Terminal Aerodrome Forecast
Issued by NWS Tampa Bay Area, FL

Home | Current Version | Previous Version | Text Only | Print | Product List | Glossary On
Versions: 1 2 3 4 5 6 7 8 9 10 11 12 13 14 15 16 17 18 19 20 21 22 23 24 25 26 27 28 29
000
FTUS42 KTBW 210700 AAA
TAFSRQ
TAF AMD
KSRQ 210745Z 2108/2206 03006KT P6SM BKN020
     FM211100 04005KT P6SM SCT020
     FM211500 VRB06KT P6SM FEW020 SCT200
     FM211800 31010KT P6SM FEW250
     FM220200 35007KT P6SM SCT050=

USA.gov is the U.S. government's official web portal to all federal, state and local government web resources and services.